createdAt,value
2017-12-26T00:00:04.174Z,101530.77
2017-12-26T00:02:31.819Z,101528.57
2017-12-26T00:04:59.279Z,101520.71
2017-12-26T00:07:26.766Z,101521.82
2017-12-26T00:09:54.214Z,101511.18
2017-12-26T00:12:21.691Z,101509.56
2017-12-26T00:14:49.375Z,101505.23
2017-12-26T00:17:16.830Z,101494.31
2017-12-26T00:19:44.517Z,101488.35
2017-12-26T00:22:11.958Z,101481.28
2017-12-26T00:24:39.402Z,101475.57
2017-12-26T00:27:06.879Z,101478.88
2017-12-26T00:29:34.334Z,101472.91
2017-12-26T00:32:01.804Z,101469.92
2017-12-26T00:34:29.463Z,101466.95
2017-12-26T00:36:56.944Z,101466.69
2017-12-26T00:39:24.628Z,101466.69
2017-12-26T00:41:52.084Z,101453.66
2017-12-26T00:44:19.551Z,101447.38
2017-12-26T00:46:47.000Z,101443.87
2017-12-26T00:49:14.477Z,101427.25
2017-12-26T00:51:42.122Z,101430.26
2017-12-26T00:54:09.616Z,101418.88
2017-12-26T00:56:37.267Z,101421.87
2017-12-26T00:59:04.730Z,101413.71
2017-12-26T01:01:32.179Z,101417.55
2017-12-26T01:03:59.660Z,101409.95
2017-12-26T01:06:26.932Z,101404.24
2017-12-26T01:08:54.411Z,101406.13
2017-12-26T01:11:21.861Z,101406.13
2017-12-26T01:13:49.344Z,101403.73
2017-12-26T01:16:16.791Z,101402.90
2017-12-26T01:18:44.250Z,101403.77
2017-12-26T01:21:11.733Z,101399.66
2017-12-26T01:23:39.184Z,101398.05
2017-12-26T01:26:06.647Z,101405.45
2017-12-26T01:28:34.128Z,101402.47
2017-12-26T01:31:01.657Z,101402.74
2017-12-26T01:33:29.388Z,101399.23
2017-12-26T01:35:56.843Z,101392.16
2017-12-26T01:38:24.494Z,101392.70
2017-12-26T01:40:52.170Z,101385.88
2017-12-26T01:43:19.615Z,101385.38
2017-12-26T01:45:47.071Z,101383.23
2017-12-26T01:48:14.547Z,101380.25
2017-12-26T01:50:41.994Z,101379.67
2017-12-26T01:53:09.471Z,101371.56
2017-12-26T01:55:36.914Z,101370.73
2017-12-26T01:58:04.386Z,101363.41
2017-12-26T02:00:31.833Z,101353.34
2017-12-26T02:02:59.303Z,101355.23
2017-12-26T02:05:26.746Z,101359.33
2017-12-26T02:07:54.206Z,101350.86
2017-12-26T02:10:21.876Z,101345.73
2017-12-26T02:12:49.326Z,101339.77
2017-12-26T02:15:16.799Z,101334.00
2017-12-26T02:17:44.247Z,101323.42
2017-12-26T02:20:11.699Z,101320.20
2017-12-26T02:22:39.172Z,101319.62
2017-12-26T02:25:06.631Z,101312.35
2017-12-26T02:27:34.111Z,101303.06
2017-12-26T02:30:01.567Z,101301.98
2017-12-26T02:32:29.237Z,101310.41
2017-12-26T02:34:56.883Z,101294.91
2017-12-26T02:37:24.354Z,101303.67
2017-12-26T02:39:51.998Z,101309.66
2017-12-26T02:42:19.442Z,101303.16
2017-12-26T02:44:46.914Z,101291.17
2017-12-26T02:47:14.362Z,101280.27
2017-12-26T02:49:42.035Z,101278.66
2017-12-26T02:52:09.492Z,101273.20
2017-12-26T02:54:36.960Z,101269.45
2017-12-26T02:57:04.623Z,101269.45
2017-12-26T02:59:32.111Z,101272.71
2017-12-26T03:01:59.555Z,101267.58
2017-12-26T03:04:27.015Z,101260.77
2017-12-26T03:06:54.664Z,101256.68
2017-12-26T03:09:22.322Z,101248.26
2017-12-26T03:11:49.987Z,101250.73
2017-12-26T03:14:17.432Z,101239.58
2017-12-26T03:16:45.115Z,101236.27
2017-12-26T03:19:12.571Z,101231.94
2017-12-26T03:21:40.034Z,101223.77
2017-12-26T03:24:07.695Z,101219.41
2017-12-26T03:26:35.351Z,101212.37
2017-12-26T03:29:02.807Z,101194.98
2017-12-26T03:31:30.279Z,101183.50
2017-12-26T03:33:57.755Z,101182.14
2017-12-26T03:36:25.246Z,101168.02
2017-12-26T03:38:52.906Z,101163.67
2017-12-26T03:41:20.373Z,101166.41
2017-12-26T03:43:47.828Z,101157.98
2017-12-26T03:46:15.309Z,101153.89
2017-12-26T03:48:42.960Z,101147.41
2017-12-26T03:51:10.454Z,101145.80
2017-12-26T03:53:37.907Z,101144.22
2017-12-26T03:56:05.361Z,101128.62
2017-12-26T03:58:32.839Z,101126.26
2017-12-26T04:01:00.295Z,101121.91
2017-12-26T04:03:27.771Z,101112.39
2017-12-26T04:05:55.422Z,101106.44
2017-12-26T04:08:22.924Z,101103.71
2017-12-26T04:10:50.572Z,101109.16
2017-12-26T04:13:18.032Z,101105.07
2017-12-26T04:15:45.523Z,101093.92
2017-12-26T04:18:13.020Z,101094.72
2017-12-26T04:20:40.659Z,101087.98
2017-12-26T04:23:08.111Z,101095.58
2017-12-26T04:25:35.594Z,101081.51
2017-12-26T04:28:03.074Z,101076.05
2017-12-26T04:30:30.554Z,101076.59
2017-12-26T04:32:58.215Z,101076.59
2017-12-26T04:35:25.675Z,101075.22
2017-12-26T04:37:53.347Z,101076.34
2017-12-26T04:40:20.804Z,101070.10
2017-12-26T04:42:48.284Z,101067.38
2017-12-26T04:45:15.736Z,101060.60
2017-12-26T04:47:43.203Z,101058.71
2017-12-26T04:50:10.664Z,101053.55
2017-12-26T04:52:38.120Z,101041.63
2017-12-26T04:55:05.599Z,101039.69
2017-12-26T04:57:33.104Z,101035.06
2017-12-26T05:00:00.537Z,101030.15
2017-12-26T05:02:28.195Z,101024.70
2017-12-26T05:04:55.679Z,101026.57
2017-12-26T05:07:23.131Z,101020.59
2017-12-26T05:09:50.607Z,101022.20
2017-12-26T05:12:18.074Z,101014.27
2017-12-26T05:14:45.747Z,101001.94
2017-12-26T05:17:13.211Z,101002.43
2017-12-26T05:19:40.655Z,101001.24
2017-12-26T05:22:08.476Z,100986.77
2017-12-26T05:24:35.926Z,100984.21
2017-12-26T05:27:03.386Z,100983.84
2017-12-26T05:29:31.060Z,100975.84
2017-12-26T05:31:58.510Z,100976.83
2017-12-26T05:34:26.003Z,100970.76
2017-12-26T05:36:53.456Z,100969.85
2017-12-26T05:39:20.915Z,100974.88
2017-12-26T05:41:48.416Z,100958.74
2017-12-26T05:44:15.867Z,100961.66
2017-12-26T05:46:43.327Z,100962.40
2017-12-26T05:49:11.015Z,100953.31
2017-12-26T05:51:38.467Z,100948.34
2017-12-26T05:54:05.942Z,100942.27
2017-12-26T05:56:33.403Z,100947.89
2017-12-26T05:59:00.850Z,100941.02
2017-12-26T06:01:28.331Z,100942.30
2017-12-26T06:03:55.779Z,100934.28
2017-12-26T06:06:23.253Z,100923.32
2017-12-26T06:08:50.703Z,100919.98
2017-12-26T06:11:18.182Z,100933.23
2017-12-26T06:13:45.631Z,100926.31
2017-12-26T06:16:13.263Z,100929.78
2017-12-26T06:18:40.743Z,100925.64
2017-12-26T06:21:08.248Z,100922.29
2017-12-26T06:23:35.847Z,100910.25
2017-12-26T06:26:03.330Z,100906.32
2017-12-26T06:28:30.780Z,100912.26
2017-12-26T06:30:58.230Z,100916.84
2017-12-26T06:33:25.912Z,100907.54
2017-12-26T06:35:53.378Z,100908.32
2017-12-26T06:38:20.839Z,100905.84
2017-12-26T06:40:48.306Z,100908.52
2017-12-26T06:43:15.791Z,100914.75
2017-12-26T06:45:43.251Z,100911.39
2017-12-26T06:48:10.726Z,100912.47
2017-12-26T06:50:38.179Z,100913.73
2017-12-26T06:53:05.640Z,100915.59
2017-12-26T06:55:33.115Z,100908.71
2017-12-26T06:58:00.598Z,100900.78
2017-12-26T07:00:28.047Z,100903.74
2017-12-26T07:02:55.508Z,100894.44
2017-12-26T07:05:22.974Z,100869.30
2017-12-26T07:07:50.430Z,100855.13
2017-12-26T07:10:17.924Z,100852.63
2017-12-26T07:12:45.586Z,100837.63
2017-12-26T07:15:13.275Z,100833.20
2017-12-26T07:17:40.723Z,100837.00
2017-12-26T07:20:13.642Z,100838.60
2017-12-26T07:22:41.112Z,100838.84
2017-12-26T07:25:08.558Z,100840.20
2017-12-26T07:27:35.819Z,100833.87
2017-12-26T07:30:03.303Z,100842.30
2017-12-26T07:32:30.760Z,100839.23
2017-12-26T07:34:58.412Z,100836.49
2017-12-26T07:37:25.891Z,100836.73
2017-12-26T07:39:53.336Z,100834.25
2017-12-26T07:42:20.911Z,100840.73
2017-12-26T07:44:48.389Z,100834.15
2017-12-26T07:47:16.039Z,100831.13
2017-12-26T07:49:43.851Z,100823.45
2017-12-26T07:52:11.303Z,100826.08
2017-12-26T07:54:38.759Z,100824.96
2017-12-26T07:57:06.609Z,100812.14
2017-12-26T07:59:34.268Z,100808.28
2017-12-26T08:02:02.891Z,100794.88
2017-12-26T08:04:30.375Z,100775.77
2017-12-26T08:06:57.833Z,100775.43
2017-12-26T08:09:25.289Z,100778.64
2017-12-26T08:11:52.955Z,100778.88
2017-12-26T08:14:20.407Z,100766.84
2017-12-26T08:16:47.695Z,100755.92
2017-12-26T08:19:15.151Z,100750.16
2017-12-26T08:21:42.634Z,100739.48
2017-12-26T08:24:10.095Z,100744.84
2017-12-26T08:26:37.543Z,100747.56
2017-12-26T08:29:05.019Z,100750.53
2017-12-26T08:31:32.475Z,100747.50
2017-12-26T08:33:59.947Z,100749.89
2017-12-26T08:36:27.600Z,100739.21
2017-12-26T08:38:55.311Z,100735.94
2017-12-26T08:41:22.795Z,100731.49
2017-12-26T08:43:50.252Z,100733.88
2017-12-26T08:46:17.728Z,100725.16
2017-12-26T08:48:45.180Z,100724.80
2017-12-26T08:51:12.641Z,100717.44
2017-12-26T08:53:40.131Z,100724.02
2017-12-26T08:56:07.787Z,100715.49
2017-12-26T08:58:35.447Z,100714.36
2017-12-26T09:01:03.119Z,100716.85
2017-12-26T09:03:30.574Z,100715.49
2017-12-26T09:05:58.253Z,100726.66
2017-12-26T09:08:25.719Z,100724.74
2017-12-26T09:10:53.199Z,100728.84
2017-12-26T09:13:20.659Z,100729.08
2017-12-26T09:15:48.143Z,100728.19
2017-12-26T09:18:15.592Z,100733.41
2017-12-26T09:20:43.063Z,100728.42
2017-12-26T09:23:10.551Z,100733.30
2017-12-26T09:28:23.044Z,100744.16
2017-12-26T09:30:50.664Z,100752.25
2017-12-26T09:33:18.144Z,100752.83
2017-12-26T09:35:45.603Z,100760.69
2017-12-26T09:38:13.111Z,100771.61
2017-12-26T09:40:40.600Z,100776.29
2017-12-26T09:43:08.272Z,100780.86
2017-12-26T09:45:35.731Z,100773.21
2017-12-26T09:48:03.204Z,100777.55
2017-12-26T09:50:30.659Z,100767.75
2017-12-26T09:52:58.156Z,100771.30
2017-12-26T09:55:25.599Z,100766.97
2017-12-26T09:57:54.046Z,100756.05
2017-12-26T10:00:21.543Z,100753.07
2017-12-26T10:02:49.028Z,100749.52
2017-12-26T10:05:16.479Z,100752.25
2017-12-26T10:07:43.961Z,100754.20
2017-12-26T10:10:11.452Z,100752.59
2017-12-26T10:12:38.908Z,100754.27
2017-12-26T10:15:06.385Z,100754.84
2017-12-26T10:17:33.826Z,100752.66
2017-12-26T10:20:01.306Z,100746.66
2017-12-26T10:22:28.769Z,100752.13
2017-12-26T10:24:56.222Z,100755.38
2017-12-26T10:27:23.904Z,100760.84
2017-12-26T10:29:51.368Z,100765.77
2017-12-26T10:32:18.859Z,100772.59
2017-12-26T10:34:46.492Z,100768.73
2017-12-26T10:37:13.990Z,100782.63
2017-12-26T10:39:41.440Z,100782.63
2017-12-26T10:42:09.115Z,100788.63
2017-12-26T10:44:36.792Z,100791.84
2017-12-26T10:47:04.252Z,100798.13
2017-12-26T10:49:31.732Z,100798.91
2017-12-26T10:51:59.212Z,100800.28
2017-12-26T10:54:26.663Z,100803.01
2017-12-26T10:56:54.149Z,100798.27
2017-12-26T10:59:21.613Z,100806.60
2017-12-26T11:01:49.145Z,100808.45
2017-12-26T11:04:16.594Z,100809.47
2017-12-26T11:06:44.090Z,100810.20
2017-12-26T11:09:11.740Z,100810.91
2017-12-26T11:11:39.235Z,100820.71
2017-12-26T11:14:06.872Z,100823.33
2017-12-26T11:16:34.336Z,100829.87
2017-12-26T11:19:01.841Z,100825.42
2017-12-26T11:21:29.281Z,100828.63
2017-12-26T11:23:56.797Z,100850.42
2017-12-26T11:26:24.248Z,100859.09
2017-12-26T11:28:51.733Z,100851.38
2017-12-26T11:31:19.188Z,100853.77
2017-12-26T11:33:46.672Z,100854.02
2017-12-26T11:36:14.129Z,100875.57
2017-12-26T11:38:41.600Z,100852.65
2017-12-26T11:41:09.080Z,100865.17
2017-12-26T11:43:36.536Z,100872.98
2017-12-26T11:46:04.196Z,100875.64
2017-12-26T11:48:31.681Z,100872.56
2017-12-26T11:50:59.144Z,100863.61
2017-12-26T11:53:26.820Z,100887.38
2017-12-26T11:55:54.277Z,100883.58
2017-12-26T11:58:21.960Z,100891.45
2017-12-26T12:00:49.453Z,100901.54
2017-12-26T12:03:17.238Z,100900.30
2017-12-26T12:05:44.699Z,100896.80
2017-12-26T12:08:12.149Z,100904.25
2017-12-26T12:10:39.656Z,100914.95
2017-12-26T12:13:07.156Z,100920.85
2017-12-26T12:15:34.836Z,100927.80
2017-12-26T12:18:02.289Z,100942.27
2017-12-26T12:20:29.769Z,100942.21
2017-12-26T12:22:57.264Z,100950.39
2017-12-26T12:25:24.728Z,100949.45
2017-12-26T12:27:52.344Z,100956.13
2017-12-26T12:30:19.784Z,100959.31
2017-12-26T12:32:47.308Z,100968.96
2017-12-26T12:35:14.833Z,100967.41
2017-12-26T12:37:42.392Z,100979.98
2017-12-26T12:40:10.012Z,100985.20
2017-12-26T12:42:37.592Z,100982.53
2017-12-26T12:45:05.168Z,100982.44
2017-12-26T12:47:32.695Z,100985.89
2017-12-26T12:50:00.157Z,100984.22
2017-12-26T12:52:27.632Z,100982.76
2017-12-26T12:54:55.132Z,100975.40
2017-12-26T12:57:22.604Z,100989.30
2017-12-26T12:59:50.063Z,100983.73
2017-12-26T13:02:17.848Z,100986.70
2017-12-26T13:04:45.290Z,100997.29
2017-12-26T13:07:12.947Z,100998.59
2017-12-26T13:09:40.208Z,100997.48
2017-12-26T13:12:07.700Z,101004.31
2017-12-26T13:14:35.156Z,101005.91
2017-12-26T13:17:02.816Z,101005.09
2017-12-26T13:19:30.292Z,101004.31
2017-12-26T13:21:57.947Z,101000.75
2017-12-26T13:24:25.477Z,101004.55
2017-12-26T13:26:53.020Z,101004.55
2017-12-26T13:29:20.484Z,101002.59
2017-12-26T13:31:47.966Z,101006.88
2017-12-26T13:34:15.452Z,100994.59
2017-12-26T13:36:42.932Z,101012.01
2017-12-26T13:39:10.603Z,101013.61
2017-12-26T13:41:38.079Z,101015.47
2017-12-26T13:44:05.604Z,101008.63
2017-12-26T13:46:33.143Z,101007.51
2017-12-26T13:49:00.615Z,100997.41
2017-12-26T13:51:28.083Z,100990.23
2017-12-26T13:53:55.539Z,100994.57
2017-12-26T13:56:23.023Z,100994.81
2017-12-26T13:58:50.492Z,101001.34
2017-12-26T14:01:17.943Z,101001.34
2017-12-26T14:03:45.442Z,101001.18
2017-12-26T14:06:13.109Z,101000.21
2017-12-26T14:08:40.672Z,100994.34
2017-12-26T14:11:08.228Z,100989.22
2017-12-26T14:13:35.773Z,100997.02
2017-12-26T14:16:03.282Z,100989.53
2017-12-26T14:18:31.776Z,100992.40
2017-12-26T14:20:59.449Z,100991.77
2017-12-26T14:23:27.021Z,101000.15
2017-12-26T14:25:54.709Z,100996.17
2017-12-26T14:28:22.024Z,100993.92
2017-12-26T14:30:49.781Z,100989.81
2017-12-26T14:33:17.163Z,100994.29
2017-12-26T14:35:44.620Z,100993.41
2017-12-26T14:38:12.071Z,100987.94
2017-12-26T14:40:39.543Z,100994.71
2017-12-26T14:43:07.052Z,100993.88
2017-12-26T14:45:34.536Z,100993.34
2017-12-26T14:48:01.804Z,100989.72
2017-12-26T14:50:29.290Z,101000.01
2017-12-26T14:52:56.768Z,100986.81
2017-12-26T15:51:21.720Z,100988.51
2017-12-26T15:53:48.981Z,100992.42
2017-12-26T15:56:16.460Z,100988.07
2017-12-26T15:58:43.915Z,100985.59
2017-12-26T16:01:11.390Z,100986.60
2017-12-26T16:03:39.059Z,100980.55
2017-12-26T16:06:06.727Z,100976.21
2017-12-26T16:08:34.203Z,100974.84
2017-12-26T16:11:01.839Z,100973.04
2017-12-26T16:13:29.307Z,100972.70
2017-12-26T16:15:56.795Z,100976.80
2017-12-26T16:18:24.252Z,100978.95
2017-12-26T16:20:51.698Z,100970.38
2017-12-26T16:23:19.193Z,100977.85
2017-12-26T16:25:46.667Z,100977.61
2017-12-26T16:28:14.152Z,100975.46
2017-12-26T16:30:41.604Z,100977.61
2017-12-26T16:33:09.082Z,100974.09
2017-12-26T16:35:36.559Z,100968.63
2017-12-26T16:38:04.019Z,100962.33
2017-12-26T16:40:31.503Z,100956.32
2017-12-26T16:42:59.155Z,100955.20
2017-12-26T16:45:26.795Z,100942.24
2017-12-26T16:47:54.284Z,100935.78
2017-12-26T16:50:21.751Z,100940.96
2017-12-26T16:52:49.430Z,100941.38
2017-12-26T16:55:17.081Z,100929.85
2017-12-26T16:57:44.550Z,100927.83
2017-12-26T17:00:12.020Z,100928.31
2017-12-26T17:02:39.683Z,100928.01
2017-12-26T17:05:07.193Z,100933.13
2017-12-26T17:07:34.847Z,100917.55
2017-12-26T17:10:02.300Z,100917.78
2017-12-26T17:12:29.779Z,100912.78
2017-12-26T17:14:57.271Z,100908.45
2017-12-26T17:17:24.757Z,100906.25
2017-12-26T17:19:52.412Z,100903.69
2017-12-26T17:22:20.084Z,100896.84
2017-12-26T17:24:47.378Z,100897.39
2017-12-26T17:27:15.037Z,100895.13
2017-12-26T17:29:42.508Z,100890.31
2017-12-26T17:32:09.992Z,100887.10
2017-12-26T17:34:37.448Z,100882.70
2017-12-26T17:37:04.894Z,100879.13
2017-12-26T17:39:32.379Z,100874.80
2017-12-26T17:42:00.040Z,100863.55
2017-12-26T17:44:27.626Z,100866.16
2017-12-26T17:46:55.299Z,100852.66
2017-12-26T17:49:22.755Z,100857.55
2017-12-26T17:51:50.239Z,100844.45
2017-12-26T17:54:17.504Z,100846.59
2017-12-26T17:56:45.955Z,100842.97
2017-12-26T17:59:13.231Z,100833.52
2017-12-26T18:01:40.683Z,100830.18
2017-12-26T18:04:08.451Z,100831.08
2017-12-26T18:06:36.108Z,100836.31
2017-12-26T18:09:03.386Z,100837.45
2017-12-26T18:11:30.924Z,100836.67
2017-12-26T18:13:58.399Z,100835.07
2017-12-26T18:16:25.869Z,100829.59
2017-12-26T18:18:53.346Z,100824.66
2017-12-26T18:21:20.995Z,100825.48
2017-12-26T18:23:48.521Z,100820.80
2017-12-26T18:26:16.174Z,100810.99
2017-12-26T18:31:16.537Z,100798.63
2017-12-26T18:33:43.803Z,100793.16
2017-12-26T18:36:11.243Z,100792.38
2017-12-26T18:38:38.898Z,100785.84
2017-12-26T18:41:06.342Z,100785.84
2017-12-26T18:43:33.790Z,100783.70
2017-12-26T18:46:01.270Z,100782.57
2017-12-26T18:48:28.717Z,100777.93
2017-12-26T18:50:56.213Z,100778.76
2017-12-26T18:53:23.670Z,100774.88
2017-12-26T18:55:51.126Z,100765.78
2017-12-26T18:58:18.599Z,100757.81
2017-12-26T19:00:46.059Z,100749.84
2017-12-26T19:03:13.550Z,100742.10
2017-12-26T19:05:40.990Z,100733.89
2017-12-26T19:08:08.708Z,100724.74
2017-12-26T19:10:36.146Z,100720.40
2017-12-26T19:13:03.599Z,100717.67
2017-12-26T19:15:31.075Z,100704.59
2017-12-26T19:17:58.531Z,100697.51
2017-12-26T19:20:25.985Z,100687.16
2017-12-26T19:22:53.459Z,100685.32
2017-12-26T19:25:20.914Z,100687.23
2017-12-26T19:27:48.395Z,100670.35
2017-12-26T19:30:15.870Z,100668.52
2017-12-26T19:32:43.483Z,100658.24
2017-12-26T19:35:10.955Z,100656.09
2017-12-26T19:37:38.425Z,100645.23
2017-12-26T19:40:05.879Z,100644.96
2017-12-26T19:42:33.552Z,100635.27
2017-12-26T19:45:01.030Z,100628.05
2017-12-26T19:47:28.506Z,100624.42
2017-12-26T19:49:56.273Z,100618.48
2017-12-26T19:52:23.934Z,100614.70
2017-12-26T19:54:51.398Z,100598.05
2017-12-26T19:57:18.843Z,100601.21
2017-12-26T19:59:46.348Z,100597.46
2017-12-26T20:02:13.770Z,100587.43
2017-12-26T20:04:41.254Z,100571.70
2017-12-26T20:07:09.014Z,100564.16
2017-12-26T20:09:36.474Z,100557.64
2017-12-26T20:12:03.923Z,100544.87
2017-12-26T20:14:31.391Z,100534.06
2017-12-26T20:16:58.662Z,100532.53
2017-12-26T20:19:26.139Z,100526.83
2017-12-26T20:21:53.581Z,100515.22
2017-12-26T20:24:21.031Z,100505.49
2017-12-26T20:26:48.510Z,100497.45
2017-12-26T20:29:20.012Z,100494.72
2017-12-26T20:31:47.478Z,100491.28
2017-12-26T20:34:14.947Z,100490.70
2017-12-26T20:36:42.402Z,100483.40
2017-12-26T20:39:09.872Z,100475.79
2017-12-26T20:41:37.349Z,100469.62
2017-12-26T20:44:04.799Z,100465.06
2017-12-26T20:46:32.277Z,100461.20
2017-12-26T20:48:59.530Z,100455.50
2017-12-26T20:51:27.011Z,100454.44
2017-12-26T20:53:54.490Z,100451.01
2017-12-26T20:56:21.948Z,100454.88
2017-12-26T20:58:50.419Z,100448.63
2017-12-26T21:01:17.883Z,100447.58
2017-12-26T21:03:45.563Z,100447.03
2017-12-26T21:06:13.018Z,100440.52
2017-12-26T21:08:40.667Z,100445.74
2017-12-26T21:11:08.148Z,100435.17
2017-12-26T21:13:35.633Z,100424.33
2017-12-26T21:16:03.084Z,100425.81
2017-12-26T21:18:30.735Z,100427.96
2017-12-26T21:20:58.202Z,100421.25
2017-12-26T21:23:26.051Z,100410.63
2017-12-26T21:25:53.314Z,100403.61
2017-12-26T21:28:20.764Z,100405.88
2017-12-26T21:30:48.265Z,100404.28
2017-12-26T21:33:15.774Z,100395.86
2017-12-26T21:35:43.227Z,100407.09
2017-12-26T21:38:10.743Z,100398.66
2017-12-26T21:40:38.203Z,100383.53
2017-12-26T21:43:05.650Z,100392.97
2017-12-26T21:45:33.197Z,100381.70
2017-12-26T21:48:00.843Z,100379.74
2017-12-26T21:50:28.327Z,100385.56
2017-12-26T21:52:55.959Z,100383.97
2017-12-26T21:55:23.433Z,100374.72
2017-12-26T21:57:50.946Z,100365.28
2017-12-26T22:00:18.402Z,100365.05
2017-12-26T22:02:45.895Z,100357.17
2017-12-26T22:05:13.351Z,100348.74
2017-12-26T22:07:40.819Z,100356.16
2017-12-26T22:10:08.267Z,100355.34
2017-12-26T22:12:35.739Z,100349.41
2017-12-26T22:15:03.202Z,100346.45
2017-12-26T22:17:30.691Z,100343.95
2017-12-26T22:19:58.154Z,100338.03
2017-12-26T22:22:25.616Z,100334.87
2017-12-26T22:24:53.073Z,100322.13
2017-12-26T22:27:20.543Z,100321.89
2017-12-26T22:29:48.003Z,100314.60
2017-12-26T22:32:15.470Z,100310.51
2017-12-26T22:34:42.932Z,100324.23
2017-12-26T22:37:10.410Z,100320.73
2017-12-26T22:39:37.863Z,100322.98
2017-12-26T22:42:05.539Z,100319.80
2017-12-26T22:44:32.986Z,100332.86
2017-12-26T22:47:00.471Z,100321.82
2017-12-26T22:49:27.951Z,100316.44
2017-12-26T22:51:55.403Z,100304.52
2017-12-26T22:54:23.091Z,100309.16
2017-12-26T22:56:50.746Z,100302.91
2017-12-26T22:59:18.218Z,100287.44
2017-12-26T23:01:45.706Z,100286.08
2017-12-26T23:04:12.971Z,100275.80
2017-12-26T23:06:40.243Z,100271.47
2017-12-26T23:09:07.724Z,100262.81
2017-12-26T23:11:35.170Z,100250.89
2017-12-26T23:14:08.085Z,100240.52
2017-12-26T23:16:40.994Z,100224.52
2017-12-26T23:19:08.253Z,100216.09
2017-12-26T23:21:35.731Z,100201.40
2017-12-26T23:24:08.523Z,100190.84
2017-12-26T23:26:41.463Z,100179.69
2017-12-26T23:29:14.335Z,100171.82
2017-12-26T23:31:47.294Z,100153.86
2017-12-26T23:34:20.296Z,100155.58
2017-12-26T23:36:53.207Z,100146.34
2017-12-26T23:39:26.112Z,100142.02
2017-12-26T23:41:59.238Z,100143.73
2017-12-26T23:44:32.219Z,100134.51
2017-12-26T23:47:05.134Z,100127.68
2017-12-26T23:49:38.275Z,100120.63
2017-12-26T23:52:11.270Z,100108.72
2017-12-26T23:54:44.200Z,100104.16
2017-12-26T23:57:17.374Z,100095.16
2017-12-26T23:59:50.246Z,100081.88
